METAR AND TAF INFORMATION

METAR FOR TNCB
ADDS - METARS form results

(0203 UTC 05 December 2022)
Data provider http://aviationweather.gov/metar/data/
 
Forecast for: TNCB (BONAIRE/FLAMINGO, BQ)
Text: TAF TNCB 042320Z 0500/0606 04009KT 9999 SCT020
Forecast period: 0000 UTC 05 December 2022 to 0600 UTC 06 December 2022
Forecast type: FROM: standard forecast or significant change
Winds: from the NE (40 degrees) at 10 MPH (9 knots; 4.6 m/s)
Visibility: 6 or more miles (10+ km)
Ceiling: at least 12,000 feet AGL
Clouds: scattered clouds at 2000 feet AGL
Weather: no significant weather forecast for this period
Text: PROB30
Forecast period: 0700 to 1300 UTC 05 December 2022
Forecast type: TEMPORARY: The following changes expected for less than half the time period
Visibility: 2.49 miles (4.01 km)
Ceiling: at least 12,000 feet AGL
Clouds: scattered clouds at 1800 feet AGL
Weather: SHRA  (rain showers)

 

AIRPORT MAP

 

RUNWAY INFORMATION

Runway 10 Runway length 9449 ft Runway width 148 ft
Runway elevation 14 ft Runway displaced threshold 0 ft Runway heading 92
Runway 28 Runway length 9449 ft Runway width 148 ft
Runway elevation 20 ft Runway displaced threshold 0 ft Runway heading 272

 

AIRPORT FREQUENCIES

Type TWR Name TWR Frequency 118.7 MHZ

 

AIRPORT NEAR NAVIGATION AIDS

Type NDB Name Bonaire Frequency 321 KHZ